KCBE/CBE METAR and TAF weather

Enter ICAO airport designator
Station Type Date Time Source
KCBE METAR 2019/12/13 22:30 UTC NOAA

KCBE 132230Z AUTO 00000KT 2 1/2SM BR BKN005 OVC010 00/00 A3010 RMK AO2


Station Type Date Time Source
KCBE Decoded METAR 2019/12/13 22:30 UTC NOAA

Cumberland, Greater Cumberland Regional Airport, MD, United States (KCBE) 39-36-55N 078-45-39W
Dec 13, 2019 - 05:30 PM EST / 2019.12.13 2230 UTC
Wind: Calm:0
Visibility: 2 1/2 mile(s):0
Sky conditions: overcast
Weather: mist
Temperature: 32 F (0 C)
Dew Point: 32 F (0 C)
Relative Humidity: 100%
Pressure (altimeter): 30.1 in. Hg (1019 hPa)
ob: KCBE 132230Z AUTO 00000KT 2 1/2SM BR BKN005 OVC010 00/00 A3010 RMK AO2
cycle: 22

Station Type Date Time Source
KCBE TAF UTC NOAA

Error!

Example: see airport list